UHBBUEEE

Guest
Details From UHBB - IGNATYEVO
To UEEE - Yakutsk
Flight Number -
Tags decoded
Created
Modified
Stats Distance 763 nm / 1,412 km
Max Altitude 0 ft / 0 m
Waypoints 11
Social Downloads 1
Likes 0
Share VATSIM

Download

Looking for another format? Having issues loading an existing format? Contact us
Advertisement - Login to hide

Notes

Requested: UHBB SIMLI G494 NALEB W109 ARDIB G495 TIRSI UEEE Unmatched points: W109 G495

Route

UHBB SIMLI G494 NALEB ARDIB TIRSI UEEE

ID Type Via Altitude Latitude Longitude Leg Dist Tot Dist Heading (true) Name
O UHBB APT - 0 ft / 0 m 50.42539˚ 127.41249˚ - 0 nm - IGNATYEVO
SIMLI FIX - 0 ft / 0 m 50.29000˚ 127.36833˚ 8 nm 8 nm 192° / 192° -
BLG VOR G494 (AWY-HI) 0 ft / 0 m 50.39361˚ 127.42750˚ 6 nm 14 nm 20° / 20° BLAGOVESHCHENSK Ignatyevo VOR-
BANIR FIX G494 (AWY-HI) 0 ft / 0 m 51.32528˚ 127.66750˚ 56 nm 71 nm 9° / 9° -
REPSA FIX G494 (AWY-LO) 0 ft / 0 m 51.76000˚ 127.66667˚ 26 nm 97 nm 360° / 360° -
NINON FIX G494 (AWY-HI) 0 ft / 0 m 52.00028˚ 127.66750˚ 14 nm 112 nm 0° / 0° -
SOVIK FIX G494 (AWY-LO) 0 ft / 0 m 52.68194˚ 127.43944˚ 41 nm 153 nm 349° / 348° -
NALEB FIX G494 (AWY-LO) 0 ft / 0 m 53.69222˚ 127.08944˚ 61 nm 215 nm 348° / 348° -
ARDIB FIX - 0 ft / 0 m 58.60056˚ 125.40111˚ 300 nm 516 nm 350° / 348° -
TIRSI FIX - 0 ft / 0 m 60.95889˚ 128.24111˚ 165 nm 681 nm 30° / 32° -
O UEEE APT - 0 ft / 0 m 62.09325˚ 129.77068˚ 80 nm 762 nm 32° / 33° Yakutsk

Altitude Profile

Advertisement - Login to hide

Weather


0- 5 10 15 20 25 30 35+ Temperature / ° C

Clouds and Precipitation
Forecast for 2017-12-17 12:00 UTC. Updated an hour ago

Ground ~20,000 ft ~40,000 ft Winds

UHBB

Details ICAO UHBB (BQS)
Name IGNATYEVO
Region Russia
Timezone Asia/Yakutsk (UTC+9.0)
Stats Elevation 638 ft / 194 m (AMSL)
Location 50.425395° 127.412489°
Runways 1
Magnetic Variation 12.263° W

METAR

UHBB 170800Z 24002MPS CAVOK M19/M26 Q1015 R36/410260 NOSIG RMK QFE743/0991

Decode

TAF

TAF UHBB 170440Z 1706/1806 32003MPS CAVOK= TAF UHSS 170500Z 1706/1812 36004MPS 9999 BKN030CB TEMPO 1706/1716 5000 -SHSN BKN015CB BECMG 1710/1712 30003MPS TEMPO 1716/1812 1400 SHSN BKN011CB

Decode

Departure Runways

ID Width Length Bearing (true) Bearing (mag) Surface Threshold Offset Overrun Length
18 148 ft / 45 m 9,254 ft / 2,821 m 168.30° 180.56° Asphalt 0 ft / 0 m 145 ft / 44 m
36 148 ft / 45 m 9,254 ft / 2,821 m 348.30° 0.56° Asphalt 0 ft / 0 m 160 ft / 49 m

UEEE

Details ICAO UEEE (YKS)
Name Yakutsk
Region Russia
Timezone Asia/Yakutsk (UTC+9.0)
Stats Elevation 325 ft / 99 m (AMSL)
Location 62.093249° 129.770678°
Runways 2
Magnetic Variation 15.673° W

METAR

UEEE 170800Z 00000MPS 0800 0700NE R23L/1600N FG NSC M38/M43 Q1020 R23L/490150 NOSIG RMK QFE756

Decode

TAF

TAF UEEE 170500Z 1706/1812 VRB01MPS 0300 FG VV002 TXM38/1706Z TNM42/1800Z TEMPO 1706/1712 1200 BR NSC

Decode

Destination Runways

ID Width Length Bearing (true) Bearing (mag) Surface Threshold Offset Overrun Length
05L 161 ft / 49 m 8,171 ft / 2,491 m 29.51° 45.18° Concrete 0 ft / 0 m 154 ft / 47 m
05R 197 ft / 60 m 11,120 ft / 3,389 m 36.88° 52.55° Asphalt 0 ft / 0 m 226 ft / 69 m
23L 197 ft / 60 m 11,120 ft / 3,389 m 216.92° 232.59° Asphalt 0 ft / 0 m 226 ft / 69 m
23R 161 ft / 49 m 8,171 ft / 2,491 m 209.53° 225.20° Concrete 3,399 ft / 1,036 m 164 ft / 50 m

Approach Navaids

Runway Type Ident Frequency Range Bearing (true) Bearing (mag) Slope Elevation
23L Localiser IMF 111.70 MHz 18 nm / 33 km 216.60° 232.28° - 325 ft / 99 m (AMSL)
23L Glidescope IMF 111.70 MHz 10 nm / 19 km 216.90° 232.57° 3.00° 325 ft / 99 m (AMSL)

Popular Alternatives